Clipper Saga — LAFY6 — position and weather

sailwx.info

Track history (hours):
 
Tides and Currents Weather Stations Pressure Air Temp Water Temp Dewpoint Dewpoint Depression Visibility Wind Speed Wind Dir Waves Ship Positions

Clipper Saga

Last reported at 2018-Feb-18 06:30 UTC. Time now 2018-Feb-18 06:47 UTC.
Position N 52°14' E 003°24'.

Length 89 m; draft 5.9 m.

Type: Ship (hazmat cat C). MMSI: 246657008.

Date/timePositionNaut miles runAvg speedWind from/ knotsBaromVisibWave heightAir tempDewpointWater temp
2018-Feb-18 06:30N 52°14' E 003°24'910.2
2018-Feb-18 05:34N 52°23' E 003°26'5110.1
2018-Feb-18 00:33N 53°05' E 004°14'512.0
2018-Feb-18 00:09N 53°08' E 004°20'212.0
2018-Feb-17 23:58N 53°09' E 004°23'10511.2
2018-Feb-17 14:35N 54°44' E 005°39'111.3
2018-Feb-17 14:29N 54°45' E 005°41'511.3
2018-Feb-17 14:00N 54°50' E 005°45'611.3
2018-Feb-17 13:29N 54°55' E 005°50'511.1
2018-Feb-17 13:00N 54°59' E 005°55'22310.3
2018-Feb-16 15:23N 57°49' E 010°17'4 9.9
2018-Feb-16 14:59N 57°49' E 010°25'510.1
2018-Feb-16 14:30N 57°49' E 010°33'5 9.4
2018-Feb-16 14:00N 57°49' E 010°42'4 7.9
2018-Feb-16 13:30N 57°46' E 010°47'510.1
2018-Feb-16 13:00N 57°41' E 010°41'2 3.0
2018-Feb-16 12:28N 57°41' E 010°38'0 0.0
2018-Feb-16 11:58N 57°41' E 010°38'0 0.0
2018-Feb-16 11:28N 57°41' E 010°38'0 0.0
2018-Feb-16 10:58N 57°41' E 010°38'0 0.0
2018-Feb-16 10:28N 57°41' E 010°38'0 0.0
2018-Feb-16 09:58N 57°41' E 010°38'0 0.0
2018-Feb-16 09:28N 57°41' E 010°38'0 0.0
2018-Feb-16 08:55N 57°41' E 010°38'0 0.0
2018-Feb-16 08:28N 57°41' E 010°38'0 0.0
2018-Feb-16 07:58N 57°41' E 010°38'0 0.0
2018-Feb-16 07:28N 57°41' E 010°38'0 0.0
2018-Feb-16 06:58N 57°41' E 010°38'0 0.0
2018-Feb-16 06:28N 57°41' E 010°38'0 0.0
2018-Feb-16 05:55N 57°41' E 010°38'0 0.0
2018-Feb-16 05:25N 57°41' E 010°38'0 0.0
2018-Feb-16 04:55N 57°41' E 010°38'0 0.0
2018-Feb-16 04:25N 57°41' E 010°38'0 0.0
2018-Feb-16 03:55N 57°41' E 010°38'0 0.0
2018-Feb-16 03:28N 57°41' E 010°38'0 0.1
2018-Feb-16 02:55N 57°41' E 010°38'0 0.2
2018-Feb-16 02:22N 57°41' E 010°38'0 0.1
2018-Feb-16 01:58N 57°41' E 010°38'0 0.5
2018-Feb-16 01:30N 57°41' E 010°38'4 8.7
2018-Feb-16 01:00N 57°44' E 010°45'5 9.8
2018-Feb-16 00:30N 57°46' E 010°53'510.0
2018-Feb-16 00:00N 57°47' E 011°02'5 9.3
2018-Feb-15 23:30N 57°49' E 011°10'5 9.3
2018-Feb-15 23:00N 57°50' E 011°19'4 8.1
2018-Feb-15 22:30N 57°51' E 011°26'3 6.5
2018-Feb-15 22:01N 57°53' E 011°31'4 8.8
2018-Feb-15 21:30N 57°55' E 011°38'611.2
2018-Feb-15 21:00N 57°59' E 011°45'510.4
2018-Feb-15 20:30N 58°04' E 011°47'1 2.2
2018-Feb-15 19:56N 58°05' E 011°49'0 0.0
2018-Feb-15 19:26N 58°05' E 011°49'0 0.0
2018-Feb-15 12:20N 58°05' E 011°49'0 0.0
2018-Feb-15 11:56N 58°05' E 011°49'0 0.0
2018-Feb-15 11:20N 58°05' E 011°49'0 0.0
2018-Feb-15 10:53N 58°05' E 011°49'0 0.0
2018-Feb-15 10:26N 58°05' E 011°49'0 0.0
2018-Feb-15 09:56N 58°05' E 011°49'0 0.0
2018-Feb-15 09:26N 58°05' E 011°49'0 0.0
2018-Feb-15 08:50N 58°05' E 011°49'0 0.0
2018-Feb-15 08:26N 58°05' E 011°49'0 0.0
2018-Feb-15 07:56N 58°05' E 011°49'0 0.0
2018-Feb-15 07:26N 58°05' E 011°49'0 0.0
2018-Feb-15 06:56N 58°05' E 011°49'0 0.0
2018-Feb-15 06:20N 58°05' E 011°49'0 0.0
2018-Feb-15 05:56N 58°05' E 011°49'0 0.0
2018-Feb-15 05:29N 58°05' E 011°49'0 0.0
2018-Feb-15 04:59N 58°05' E 011°49'0 0.0
2018-Feb-15 04:23N 58°05' E 011°49'0 0.0
2018-Feb-15 03:59N 58°05' E 011°49'0 0.0
2018-Feb-15 03:29N 58°05' E 011°49'0 0.0
2018-Feb-15 02:53N 58°05' E 011°49'0 0.0
2018-Feb-15 02:11N 58°05' E 011°49'0 0.0
2018-Feb-15 01:59N 58°05' E 011°49'0 0.0
2018-Feb-15 01:29N 58°05' E 011°49'0 0.0
2018-Feb-15 00:56N 58°05' E 011°49'0 0.0
2018-Feb-15 00:29N 58°05' E 011°49'0 0.0
2018-Feb-14 23:53N 58°05' E 011°49'0 0.0
2018-Feb-14 23:26N 58°05' E 011°49'0 0.0
2018-Feb-14 22:59N 58°05' E 011°49'0 0.0
2018-Feb-14 22:26N 58°05' E 011°49'0 0.0
2018-Feb-14 22:00N 58°05' E 011°49'1 1.3
2018-Feb-14 21:30N 58°05' E 011°48'4 7.4
2018-Feb-14 21:00N 58°02' E 011°47'612.1
2018-Feb-14 20:30N 57°56' E 011°41'0 0.8
2018-Feb-14 20:00N 57°56' E 011°42'0 0.0
2018-Feb-14 19:30N 57°56' E 011°42'0 0.0
2018-Feb-14 19:00N 57°56' E 011°42'0 0.0
2018-Feb-14 18:30N 57°56' E 011°42'0 0.0
2018-Feb-14 17:57N 57°56' E 011°42'0 0.0
2018-Feb-14 17:30N 57°56' E 011°42'0 0.0
2018-Feb-14 16:57N 57°56' E 011°42'0 0.0
2018-Feb-14 16:30N 57°56' E 011°42'0 0.0
2018-Feb-14 16:00N 57°56' E 011°42'0 0.0
2018-Feb-14 15:27N 57°56' E 011°42'0 0.0
2018-Feb-14 14:54N 57°56' E 011°42'0 0.0
2018-Feb-14 14:30N 57°56' E 011°42'0 0.0
2018-Feb-14 13:57N 57°56' E 011°42'0 0.0
2018-Feb-14 13:27N 57°56' E 011°42'0 0.0
2018-Feb-14 13:00N 57°56' E 011°42'0 0.0
2018-Feb-14 12:27N 57°56' E 011°42'0 0.0
2018-Feb-14 12:00N 57°56' E 011°42'0 0.0
2018-Feb-14 11:30N 57°56' E 011°42'0 0.0
2018-Feb-14 11:00N 57°56' E 011°42'0 0.0
2018-Feb-14 10:30N 57°56' E 011°42'0 0.0
2018-Feb-14 10:00N 57°56' E 011°42'0 0.0
2018-Feb-14 09:30N 57°56' E 011°42'0 0.0
2018-Feb-14 09:00N 57°56' E 011°42'0 0.0
2018-Feb-14 08:27N 57°56' E 011°42'0 0.0
2018-Feb-14 08:00N 57°56' E 011°42'0 0.0
2018-Feb-14 07:30N 57°56' E 011°42'0 0.0
2018-Feb-14 06:57N 57°56' E 011°42'0 0.0
2018-Feb-14 06:30N 57°56' E 011°42'0 0.0
2018-Feb-14 06:00N 57°56' E 011°42'0 0.0
2018-Feb-14 05:30N 57°56' E 011°42'0 0.0
2018-Feb-14 05:00N 57°56' E 011°42'0 0.0
2018-Feb-14 04:27N 57°56' E 011°42'0 0.0
2018-Feb-14 04:00N 57°56' E 011°42'0 0.0
2018-Feb-14 03:30N 57°56' E 011°42'0 0.0
2018-Feb-14 03:00N 57°56' E 011°42'0 0.0
2018-Feb-14 02:30N 57°56' E 011°42'0 0.0
2018-Feb-14 02:00N 57°56' E 011°42'0 0.0
2018-Feb-14 01:30N 57°56' E 011°42'0 0.0
2018-Feb-14 01:00N 57°56' E 011°42'0 0.0
2018-Feb-14 00:30N 57°56' E 011°42'0 0.0
2018-Feb-14 00:00N 57°56' E 011°42'0 0.2
2018-Feb-13 23:30N 57°56' E 011°42'3 5.9
2018-Feb-13 23:00N 57°55' E 011°37'612.2
2018-Feb-13 22:31N 57°52' E 011°28'5 9.6
2018-Feb-13 22:00N 57°52' E 011°19'4 8.6
2018-Feb-13 21:30N 57°54' E 011°12'4 8.9
2018-Feb-13 21:00N 57°57' E 011°04'4 8.8
2018-Feb-13 20:30N 57°60' E 010°59'4 8.5
2018-Feb-13 20:00N 58°03' E 010°54'4 7.9
2018-Feb-13 19:30N 58°06' E 010°48'4 8.8
2018-Feb-13 19:00N 58°06' E 010°40'10 2.5
2018-Feb-13 14:54N 57°59' E 010°25'3 7.7
2018-Feb-13 14:30N 57°59' E 010°31'4 7.7
2018-Feb-13 14:00N 57°58' E 010°39'4 7.8
2018-Feb-13 13:30N 57°58' E 010°46'3 7.0
2018-Feb-13 13:00N 57°57' E 010°52'4 7.7
2018-Feb-13 12:30N 57°54' E 010°57'4 7.5
2018-Feb-13 12:01N 57°51' E 011°00'4 8.1
2018-Feb-13 11:30N 57°48' E 011°04'4 7.6
2018-Feb-13 11:00N 57°44' E 011°07'510.1
2018-Feb-13 10:31N 57°42' E 011°15'611.3
2018-Feb-13 10:00N 57°40' E 011°25'510.7
2018-Feb-13 09:30N 57°39' E 011°35'611.7
2018-Feb-13 09:00N 57°40' E 011°46'5 9.3
2018-Feb-13 08:30N 57°41' E 011°54'3 6.9
2018-Feb-13 08:00N 57°43' E 011°59'2 4.0
2018-Feb-13 07:30N 57°45' E 012°00'3 5.0
2018-Feb-13 07:00N 57°48' E 012°01'3 6.4
2018-Feb-13 06:30N 57°51' E 012°01'3 6.8
2018-Feb-13 06:00N 57°54' E 012°03'1 0.2
2018-Feb-13 00:32N 57°55' E 012°04'0 0.0
2018-Feb-13 00:26N 57°55' E 012°04'0 0.0
2018-Feb-12 23:56N 57°55' E 012°04'0 0.0
2018-Feb-12 20:50N 57°55' E 012°04'0 0.0
2018-Feb-12 14:08N 57°55' E 012°04'0 0.0
2018-Feb-12 13:32N 57°55' E 012°04'0 0.0
2018-Feb-12 13:30N 57°55' E 012°04'1 2.0
2018-Feb-12 13:00N 57°54' E 012°03'4 7.8
2018-Feb-12 12:30N 57°51' E 012°01'3 6.0
2018-Feb-12 12:00N 57°48' E 012°01'3 5.8
2018-Feb-12 11:30N 57°45' E 012°00'2 4.2
2018-Feb-12 11:00N 57°43' E 011°58'3 6.5
2018-Feb-12 10:30N 57°41' E 011°53'5 9.5
2018-Feb-12 10:00N 57°39' E 011°45'510.5
2018-Feb-12 09:30N 57°35' E 011°39'5 9.5
2018-Feb-12 09:00N 57°31' E 011°37'611.0
2018-Feb-12 08:30N 57°25' E 011°40'611.4
2018-Feb-12 08:01N 57°20' E 011°43'610.9
2018-Feb-12 07:29N 57°16' E 011°50'510.4
2018-Feb-12 07:00N 57°11' E 011°55'5510.8
2018-Feb-12 01:58N 56°19' E 012°20'511.0
2018-Feb-12 01:30N 56°14' E 012°22'713.4
2018-Feb-12 01:00N 56°09' E 012°30'713.7
2018-Feb-12 00:30N 56°04' E 012°39'612.6
2018-Feb-12 00:00N 55°58' E 012°41'611.7
2018-Feb-11 23:30N 55°52' E 012°40'612.8
2018-Feb-11 23:00N 55°45' E 012°42'713.5
2018-Feb-11 22:30N 55°39' E 012°42'612.7
2018-Feb-11 22:00N 55°32' E 012°43'611.3
2018-Feb-11 21:30N 55°27' E 012°42'612.3
2018-Feb-11 21:00N 55°21' E 012°40'5 9.7
2018-Feb-11 20:30N 55°17' E 012°46'510.7
2018-Feb-11 20:00N 55°16' E 012°55'610.8
2018-Feb-11 19:29N 55°15' E 013°05'511.1
2018-Feb-11 19:00N 55°15' E 013°15'2111.1
2018-Feb-11 17:09N 55°14' E 013°51'311.0
2018-Feb-11 16:51N 55°14' E 013°57'411.0
2018-Feb-11 16:29N 55°14' E 014°04'710.4
2018-Feb-11 15:48N 55°14' E 014°16'3 9.6
2018-Feb-11 15:28N 55°16' E 014°20'4 9.7
2018-Feb-11 15:00N 55°20' E 014°25'810.0
2018-Feb-11 14:13N 55°26' E 014°34'310.7
2018-Feb-11 13:56N 55°28' E 014°38'511.2
2018-Feb-11 13:30N 55°30' E 014°45'611.2
2018-Feb-11 13:00N 55°33' E 014°54'611.2
2018-Feb-11 12:30N 55°35' E 015°03'611.1
2018-Feb-11 12:00N 55°38' E 015°11'511.0
2018-Feb-11 11:30N 55°41' E 015°19'611.0
2018-Feb-11 11:00N 55°44' E 015°28'511.0
2018-Feb-11 10:30N 55°47' E 015°36'611.2
2018-Feb-11 10:00N 55°49' E 015°45'611.5
2018-Feb-11 09:30N 55°52' E 015°54'611.3
2018-Feb-11 09:00N 55°55' E 016°02'611.3
2018-Feb-11 08:30N 55°58' E 016°11'611.5
2018-Feb-11 08:00N 56°01' E 016°20'611.9
2018-Feb-11 07:30N 56°04' E 016°29'612.0
2018-Feb-11 07:00N 56°07' E 016°38'611.2
2018-Feb-11 06:30N 56°11' E 016°45'611.9
2018-Feb-11 06:00N 56°17' E 016°49'611.8
2018-Feb-11 05:29N 56°22' E 016°54'25911.2
2018-Feb-10 06:27N 59°29' E 022°31'612.1
2018-Feb-10 06:00N 59°31' E 022°41'612.2
2018-Feb-10 05:30N 59°33' E 022°52'812.5
2018-Feb-10 04:50N 59°35' E 023°08'412.5
2018-Feb-10 04:30N 59°36' E 023°16'612.5
2018-Feb-10 04:00N 59°38' E 023°28'612.2
2018-Feb-10 03:30N 59°40' E 023°40'611.6
2018-Feb-10 03:00N 59°42' E 023°51'612.0
2018-Feb-10 02:30N 59°43' E 024°02'812.6
2018-Feb-10 01:53N 59°46' E 024°17'512.8
2018-Feb-10 01:30N 59°47' E 024°26'612.3
2018-Feb-10 01:00N 59°48' E 024°38'611.9
2018-Feb-10 00:30N 59°49' E 024°50'612.1
2018-Feb-10 00:00N 59°51' E 025°02'611.7
2018-Feb-09 23:30N 59°52' E 025°13'611.9
2018-Feb-09 23:00N 59°53' E 025°25'312.2
2018-Feb-09 22:46N 59°53' E 025°30'2011.6
2018-Feb-09 21:00N 60°03' E 026°06'1711.3
2018-Feb-09 19:30N 60°16' E 026°28'5 9.7
2018-Feb-09 19:00N 60°19' E 026°36'510.5
2018-Feb-09 18:31N 60°22' E 026°44'510.5
2018-Feb-09 18:00N 60°24' E 026°54'10 0.5
2018-Feb-08 23:31N 60°20' E 026°36'1610.5
2018-Feb-08 22:00N 60°07' E 026°16'6510.9
2018-Feb-08 16:00N 59°35' E 024°24'5 1.3
2018-Feb-08 12:00N 59°30' E 024°26'612.2
2018-Feb-08 11:30N 59°30' E 024°14'  
Track history (hours):
 
Tides and Currents Weather Stations Pressure Air Temp Water Temp Dewpoint Dewpoint Depression Visibility Wind Speed Wind Dir Waves Ship Positions

Clipper Saga

Last reported at 2018-Feb-18 06:30 UTC. Time now 2018-Feb-18 06:47 UTC.
Position N 52°14' E 003°24'.

Length 89 m; draft 5.9 m.

Type: Ship (hazmat cat C). MMSI: 246657008.

Date/timePositionNaut miles runAvg speedWind from/ knotsBaromVisibWave heightAir tempDewpointWater temp
2018-Feb-18 06:30N 52°14' E 003°24'910.2
2018-Feb-18 05:34N 52°23' E 003°26'5110.1
2018-Feb-18 00:33N 53°05' E 004°14'512.0
2018-Feb-18 00:09N 53°08' E 004°20'212.0
2018-Feb-17 23:58N 53°09' E 004°23'10511.2
2018-Feb-17 14:35N 54°44' E 005°39'111.3
2018-Feb-17 14:29N 54°45' E 005°41'511.3
2018-Feb-17 14:00N 54°50' E 005°45'611.3
2018-Feb-17 13:29N 54°55' E 005°50'511.1
2018-Feb-17 13:00N 54°59' E 005°55'22310.3
2018-Feb-16 15:23N 57°49' E 010°17'4 9.9
2018-Feb-16 14:59N 57°49' E 010°25'510.1
2018-Feb-16 14:30N 57°49' E 010°33'5 9.4
2018-Feb-16 14:00N 57°49' E 010°42'4 7.9
2018-Feb-16 13:30N 57°46' E 010°47'510.1
2018-Feb-16 13:00N 57°41' E 010°41'2 3.0
2018-Feb-16 12:28N 57°41' E 010°38'0 0.0
2018-Feb-16 11:58N 57°41' E 010°38'0 0.0
2018-Feb-16 11:28N 57°41' E 010°38'0 0.0
2018-Feb-16 10:58N 57°41' E 010°38'0 0.0
2018-Feb-16 10:28N 57°41' E 010°38'0 0.0
2018-Feb-16 09:58N 57°41' E 010°38'0 0.0
2018-Feb-16 09:28N 57°41' E 010°38'0 0.0
2018-Feb-16 08:55N 57°41' E 010°38'0 0.0
2018-Feb-16 08:28N 57°41' E 010°38'0 0.0
2018-Feb-16 07:58N 57°41' E 010°38'0 0.0
2018-Feb-16 07:28N 57°41' E 010°38'0 0.0
2018-Feb-16 06:58N 57°41' E 010°38'0 0.0
2018-Feb-16 06:28N 57°41' E 010°38'0 0.0
2018-Feb-16 05:55N 57°41' E 010°38'0 0.0
2018-Feb-16 05:25N 57°41' E 010°38'0 0.0
2018-Feb-16 04:55N 57°41' E 010°38'0 0.0
2018-Feb-16 04:25N 57°41' E 010°38'0 0.0
2018-Feb-16 03:55N 57°41' E 010°38'0 0.0
2018-Feb-16 03:28N 57°41' E 010°38'0 0.1
2018-Feb-16 02:55N 57°41' E 010°38'0 0.2
2018-Feb-16 02:22N 57°41' E 010°38'0 0.1
2018-Feb-16 01:58N 57°41' E 010°38'0 0.5
2018-Feb-16 01:30N 57°41' E 010°38'4 8.7
2018-Feb-16 01:00N 57°44' E 010°45'5 9.8
2018-Feb-16 00:30N 57°46' E 010°53'510.0
2018-Feb-16 00:00N 57°47' E 011°02'5 9.3
2018-Feb-15 23:30N 57°49' E 011°10'5 9.3
2018-Feb-15 23:00N 57°50' E 011°19'4 8.1
2018-Feb-15 22:30N 57°51' E 011°26'3 6.5
2018-Feb-15 22:01N 57°53' E 011°31'4 8.8
2018-Feb-15 21:30N 57°55' E 011°38'611.2
2018-Feb-15 21:00N 57°59' E 011°45'510.4
2018-Feb-15 20:30N 58°04' E 011°47'1 2.2
2018-Feb-15 19:56N 58°05' E 011°49'0 0.0
2018-Feb-15 19:26N 58°05' E 011°49'0 0.0
2018-Feb-15 12:20N 58°05' E 011°49'0 0.0
2018-Feb-15 11:56N 58°05' E 011°49'0 0.0
2018-Feb-15 11:20N 58°05' E 011°49'0 0.0
2018-Feb-15 10:53N 58°05' E 011°49'0 0.0
2018-Feb-15 10:26N 58°05' E 011°49'0 0.0
2018-Feb-15 09:56N 58°05' E 011°49'0 0.0
2018-Feb-15 09:26N 58°05' E 011°49'0 0.0
2018-Feb-15 08:50N 58°05' E 011°49'0 0.0
2018-Feb-15 08:26N 58°05' E 011°49'0 0.0
2018-Feb-15 07:56N 58°05' E 011°49'0 0.0
2018-Feb-15 07:26N 58°05' E 011°49'0 0.0
2018-Feb-15 06:56N 58°05' E 011°49'0 0.0
2018-Feb-15 06:20N 58°05' E 011°49'0 0.0
2018-Feb-15 05:56N 58°05' E 011°49'0 0.0
2018-Feb-15 05:29N 58°05' E 011°49'0 0.0
2018-Feb-15 04:59N 58°05' E 011°49'0 0.0
2018-Feb-15 04:23N 58°05' E 011°49'0 0.0
2018-Feb-15 03:59N 58°05' E 011°49'0 0.0
2018-Feb-15 03:29N 58°05' E 011°49'0 0.0
2018-Feb-15 02:53N 58°05' E 011°49'0 0.0
2018-Feb-15 02:11N 58°05' E 011°49'0 0.0
2018-Feb-15 01:59N 58°05' E 011°49'0 0.0
2018-Feb-15 01:29N 58°05' E 011°49'0 0.0
2018-Feb-15 00:56N 58°05' E 011°49'0 0.0
2018-Feb-15 00:29N 58°05' E 011°49'0 0.0
2018-Feb-14 23:53N 58°05' E 011°49'0 0.0
2018-Feb-14 23:26N 58°05' E 011°49'0 0.0
2018-Feb-14 22:59N 58°05' E 011°49'0 0.0
2018-Feb-14 22:26N 58°05' E 011°49'0 0.0
2018-Feb-14 22:00N 58°05' E 011°49'1 1.3
2018-Feb-14 21:30N 58°05' E 011°48'4 7.4
2018-Feb-14 21:00N 58°02' E 011°47'612.1
2018-Feb-14 20:30N 57°56' E 011°41'0 0.8
2018-Feb-14 20:00N 57°56' E 011°42'0 0.0
2018-Feb-14 19:30N 57°56' E 011°42'0 0.0
2018-Feb-14 19:00N 57°56' E 011°42'0 0.0
2018-Feb-14 18:30N 57°56' E 011°42'0 0.0
2018-Feb-14 17:57N 57°56' E 011°42'0 0.0
2018-Feb-14 17:30N 57°56' E 011°42'0 0.0
2018-Feb-14 16:57N 57°56' E 011°42'0 0.0
2018-Feb-14 16:30N 57°56' E 011°42'0 0.0
2018-Feb-14 16:00N 57°56' E 011°42'0 0.0
2018-Feb-14 15:27N 57°56' E 011°42'0 0.0
2018-Feb-14 14:54N 57°56' E 011°42'0 0.0
2018-Feb-14 14:30N 57°56' E 011°42'0 0.0
2018-Feb-14 13:57N 57°56' E 011°42'0 0.0
2018-Feb-14 13:27N 57°56' E 011°42'0 0.0
2018-Feb-14 13:00N 57°56' E 011°42'0 0.0
2018-Feb-14 12:27N 57°56' E 011°42'0 0.0
2018-Feb-14 12:00N 57°56' E 011°42'0 0.0
2018-Feb-14 11:30N 57°56' E 011°42'0 0.0
2018-Feb-14 11:00N 57°56' E 011°42'0 0.0
2018-Feb-14 10:30N 57°56' E 011°42'0 0.0
2018-Feb-14 10:00N 57°56' E 011°42'0 0.0
2018-Feb-14 09:30N 57°56' E 011°42'0 0.0
2018-Feb-14 09:00N 57°56' E 011°42'0 0.0
2018-Feb-14 08:27N 57°56' E 011°42'0 0.0
2018-Feb-14 08:00N 57°56' E 011°42'0 0.0
2018-Feb-14 07:30N 57°56' E 011°42'0 0.0
2018-Feb-14 06:57N 57°56' E 011°42'0 0.0
2018-Feb-14 06:30N 57°56' E 011°42'0 0.0
2018-Feb-14 06:00N 57°56' E 011°42'0 0.0
2018-Feb-14 05:30N 57°56' E 011°42'0 0.0
2018-Feb-14 05:00N 57°56' E 011°42'0 0.0
2018-Feb-14 04:27N 57°56' E 011°42'0 0.0
2018-Feb-14 04:00N 57°56' E 011°42'0 0.0
2018-Feb-14 03:30N 57°56' E 011°42'0 0.0
2018-Feb-14 03:00N 57°56' E 011°42'0 0.0
2018-Feb-14 02:30N 57°56' E 011°42'0 0.0
2018-Feb-14 02:00N 57°56' E 011°42'0 0.0
2018-Feb-14 01:30N 57°56' E 011°42'0 0.0
2018-Feb-14 01:00N 57°56' E 011°42'0 0.0
2018-Feb-14 00:30N 57°56' E 011°42'0 0.0
2018-Feb-14 00:00N 57°56' E 011°42'0 0.2
2018-Feb-13 23:30N 57°56' E 011°42'3 5.9
2018-Feb-13 23:00N 57°55' E 011°37'612.2
2018-Feb-13 22:31N 57°52' E 011°28'5 9.6
2018-Feb-13 22:00N 57°52' E 011°19'4 8.6
2018-Feb-13 21:30N 57°54' E 011°12'4 8.9
2018-Feb-13 21:00N 57°57' E 011°04'4 8.8
2018-Feb-13 20:30N 57°60' E 010°59'4 8.5
2018-Feb-13 20:00N 58°03' E 010°54'4 7.9
2018-Feb-13 19:30N 58°06' E 010°48'4 8.8
2018-Feb-13 19:00N 58°06' E 010°40'10 2.5
2018-Feb-13 14:54N 57°59' E 010°25'3 7.7
2018-Feb-13 14:30N 57°59' E 010°31'4 7.7
2018-Feb-13 14:00N 57°58' E 010°39'4 7.8
2018-Feb-13 13:30N 57°58' E 010°46'3 7.0
2018-Feb-13 13:00N 57°57' E 010°52'4 7.7
2018-Feb-13 12:30N 57°54' E 010°57'4 7.5
2018-Feb-13 12:01N 57°51' E 011°00'4 8.1
2018-Feb-13 11:30N 57°48' E 011°04'4 7.6
2018-Feb-13 11:00N 57°44' E 011°07'510.1
2018-Feb-13 10:31N 57°42' E 011°15'611.3
2018-Feb-13 10:00N 57°40' E 011°25'510.7
2018-Feb-13 09:30N 57°39' E 011°35'611.7
2018-Feb-13 09:00N 57°40' E 011°46'5 9.3
2018-Feb-13 08:30N 57°41' E 011°54'3 6.9
2018-Feb-13 08:00N 57°43' E 011°59'2 4.0
2018-Feb-13 07:30N 57°45' E 012°00'3 5.0
2018-Feb-13 07:00N 57°48' E 012°01'3 6.4
2018-Feb-13 06:30N 57°51' E 012°01'3 6.8
2018-Feb-13 06:00N 57°54' E 012°03'1 0.2
2018-Feb-13 00:32N 57°55' E 012°04'0 0.0
2018-Feb-13 00:26N 57°55' E 012°04'0 0.0
2018-Feb-12 23:56N 57°55' E 012°04'0 0.0
2018-Feb-12 20:50N 57°55' E 012°04'0 0.0
2018-Feb-12 14:08N 57°55' E 012°04'0 0.0
2018-Feb-12 13:32N 57°55' E 012°04'0 0.0
2018-Feb-12 13:30N 57°55' E 012°04'1 2.0
2018-Feb-12 13:00N 57°54' E 012°03'4 7.8
2018-Feb-12 12:30N 57°51' E 012°01'3 6.0
2018-Feb-12 12:00N 57°48' E 012°01'3 5.8
2018-Feb-12 11:30N 57°45' E 012°00'2 4.2
2018-Feb-12 11:00N 57°43' E 011°58'3 6.5
2018-Feb-12 10:30N 57°41' E 011°53'5 9.5
2018-Feb-12 10:00N 57°39' E 011°45'510.5
2018-Feb-12 09:30N 57°35' E 011°39'5 9.5
2018-Feb-12 09:00N 57°31' E 011°37'611.0
2018-Feb-12 08:30N 57°25' E 011°40'611.4
2018-Feb-12 08:01N 57°20' E 011°43'610.9
2018-Feb-12 07:29N 57°16' E 011°50'510.4
2018-Feb-12 07:00N 57°11' E 011°55'5510.8
2018-Feb-12 01:58N 56°19' E 012°20'511.0
2018-Feb-12 01:30N 56°14' E 012°22'713.4
2018-Feb-12 01:00N 56°09' E 012°30'713.7
2018-Feb-12 00:30N 56°04' E 012°39'612.6
2018-Feb-12 00:00N 55°58' E 012°41'611.7
2018-Feb-11 23:30N 55°52' E 012°40'612.8
2018-Feb-11 23:00N 55°45' E 012°42'713.5
2018-Feb-11 22:30N 55°39' E 012°42'612.7
2018-Feb-11 22:00N 55°32' E 012°43'611.3
2018-Feb-11 21:30N 55°27' E 012°42'612.3
2018-Feb-11 21:00N 55°21' E 012°40'5 9.7
2018-Feb-11 20:30N 55°17' E 012°46'510.7
2018-Feb-11 20:00N 55°16' E 012°55'610.8
2018-Feb-11 19:29N 55°15' E 013°05'511.1
2018-Feb-11 19:00N 55°15' E 013°15'2111.1
2018-Feb-11 17:09N 55°14' E 013°51'311.0
2018-Feb-11 16:51N 55°14' E 013°57'411.0
2018-Feb-11 16:29N 55°14' E 014°04'710.4
2018-Feb-11 15:48N 55°14' E 014°16'3 9.6
2018-Feb-11 15:28N 55°16' E 014°20'4 9.7
2018-Feb-11 15:00N 55°20' E 014°25'810.0
2018-Feb-11 14:13N 55°26' E 014°34'310.7
2018-Feb-11 13:56N 55°28' E 014°38'511.2
2018-Feb-11 13:30N 55°30' E 014°45'611.2
2018-Feb-11 13:00N 55°33' E 014°54'611.2
2018-Feb-11 12:30N 55°35' E 015°03'611.1
2018-Feb-11 12:00N 55°38' E 015°11'511.0
2018-Feb-11 11:30N 55°41' E 015°19'611.0
2018-Feb-11 11:00N 55°44' E 015°28'511.0
2018-Feb-11 10:30N 55°47' E 015°36'611.2
2018-Feb-11 10:00N 55°49' E 015°45'611.5
2018-Feb-11 09:30N 55°52' E 015°54'611.3
2018-Feb-11 09:00N 55°55' E 016°02'611.3
2018-Feb-11 08:30N 55°58' E 016°11'611.5
2018-Feb-11 08:00N 56°01' E 016°20'611.9
2018-Feb-11 07:30N 56°04' E 016°29'612.0
2018-Feb-11 07:00N 56°07' E 016°38'611.2
2018-Feb-11 06:30N 56°11' E 016°45'611.9
2018-Feb-11 06:00N 56°17' E 016°49'611.8
2018-Feb-11 05:29N 56°22' E 016°54'25911.2
2018-Feb-10 06:27N 59°29' E 022°31'612.1
2018-Feb-10 06:00N 59°31' E 022°41'612.2
2018-Feb-10 05:30N 59°33' E 022°52'812.5
2018-Feb-10 04:50N 59°35' E 023°08'412.5
2018-Feb-10 04:30N 59°36' E 023°16'612.5
2018-Feb-10 04:00N 59°38' E 023°28'612.2
2018-Feb-10 03:30N 59°40' E 023°40'611.6
2018-Feb-10 03:00N 59°42' E 023°51'612.0
2018-Feb-10 02:30N 59°43' E 024°02'812.6
2018-Feb-10 01:53N 59°46' E 024°17'512.8
2018-Feb-10 01:30N 59°47' E 024°26'612.3
2018-Feb-10 01:00N 59°48' E 024°38'611.9
2018-Feb-10 00:30N 59°49' E 024°50'612.1
2018-Feb-10 00:00N 59°51' E 025°02'611.7
2018-Feb-09 23:30N 59°52' E 025°13'611.9
2018-Feb-09 23:00N 59°53' E 025°25'312.2
2018-Feb-09 22:46N 59°53' E 025°30'2011.6
2018-Feb-09 21:00N 60°03' E 026°06'1711.3
2018-Feb-09 19:30N 60°16' E 026°28'5 9.7
2018-Feb-09 19:00N 60°19' E 026°36'510.5
2018-Feb-09 18:31N 60°22' E 026°44'510.5
2018-Feb-09 18:00N 60°24' E 026°54'10 0.5
2018-Feb-08 23:31N 60°20' E 026°36'1610.5
2018-Feb-08 22:00N 60°07' E 026°16'6510.9
2018-Feb-08 16:00N 59°35' E 024°24'5 1.3
2018-Feb-08 12:00N 59°30' E 024°26'612.2
2018-Feb-08 11:30N 59°30' E 024°14'  

Dump ship's entire track history